Time;durP1;ratioP1;P1;durP2;ratioP2;P2;SDS_P1;SDS_P2;PMS_P1;PMS_P2;Temp;Humidity;BMP_temperature;BMP_pressure;BME280_temperature;BME280_humidity;BME280_pressure;Samples;Min_cycle;Max_cycle;Signal;HPM_P1;HPM_P2
2022/05/01 00:00:36;;;;;;;3.90;3.03;;;7.60;99.90;;;;;;7367440;19;20385;-71
2022/05/01 00:03:01;;;;;;;4.72;3.47;;;7.60;99.90;;;;;;7368119;19;20312;-72
2022/05/01 00:05:28;;;;;;;4.00;3.33;;;7.50;99.90;;;;;;7369976;19;20393;-72
2022/05/01 00:07:53;;;;;;;3.65;3.25;;;7.40;99.90;;;;;;7371101;19;20397;-72
2022/05/01 00:10:19;;;;;;;3.90;3.23;;;7.40;99.90;;;;;;7372012;19;20344;-72
2022/05/01 00:12:45;;;;;;;4.57;3.28;;;7.30;99.90;;;;;;7367818;19;20332;-72
2022/05/01 00:15:14;;;;;;;4.97;3.50;;;7.30;99.90;;;;;;7367514;19;21280;-73
2022/05/01 00:17:39;;;;;;;4.03;2.80;;;7.30;99.90;;;;;;7373832;19;20313;-72
2022/05/01 00:20:06;;;;;;;3.80;3.40;;;7.30;99.90;;;;;;7365908;19;21194;-72
2022/05/01 00:22:31;;;;;;;6.00;3.25;;;7.30;99.90;;;;;;7369676;19;20312;-71
2022/05/01 00:24:57;;;;;;;7.70;3.87;;;7.20;99.90;;;;;;7369993;19;20460;-72
2022/05/01 00:27:22;;;;;;;6.43;4.10;;;7.10;99.90;;;;;;7372591;19;20355;-72
2022/05/01 00:29:48;;;;;;;4.90;3.83;;;6.90;99.90;;;;;;7372624;19;20377;-73
2022/05/01 00:32:14;;;;;;;3.67;3.20;;;6.80;99.90;;;;;;7366155;19;20353;-72
2022/05/01 00:37:23;;;;;;;4.75;3.65;;;6.80;99.90;;;;;;7269442;19;2004359;-73
2022/05/01 00:39:49;;;;;;;6.25;3.78;;;6.80;99.90;;;;;;7370899;19;20680;-73
2022/05/01 00:42:17;;;;;;;4.90;3.50;;;6.70;99.90;;;;;;7366405;19;20361;-71
2022/05/01 00:44:42;;;;;;;4.57;3.70;;;6.70;99.90;;;;;;7367334;19;20324;-71
2022/05/01 00:47:08;;;;;;;4.23;3.80;;;6.60;99.90;;;;;;7369829;19;20999;-72
2022/05/01 00:49:33;;;;;;;4.00;3.50;;;6.60;99.90;;;;;;7370132;19;20349;-75
2022/05/01 00:52:03;;;;;;;4.80;4.30;;;6.60;99.90;;;;;;7365138;19;20353;-73
2022/05/01 00:54:29;;;;;;;5.45;3.90;;;6.50;99.90;;;;;;7371126;19;20353;-72
2022/05/01 00:56:59;;;;;;;6.18;3.95;;;6.40;99.90;;;;;;7366170;19;21039;-73
2022/05/01 00:59:26;;;;;;;6.18;3.78;;;6.40;99.90;;;;;;7369741;19;20809;-73
2022/05/01 01:01:52;;;;;;;5.47;4.30;;;6.40;99.90;;;;;;7365676;19;20419;-73
2022/05/01 01:04:17;;;;;;;5.97;4.30;;;6.40;99.90;;;;;;7369568;19;20333;-72
2022/05/01 01:06:43;;;;;;;5.47;3.75;;;6.40;99.90;;;;;;7369460;19;20390;-72
2022/05/01 01:09:09;;;;;;;5.57;4.28;;;6.30;99.90;;;;;;7370157;19;20353;-71
2022/05/01 01:11:36;;;;;;;5.53;4.00;;;6.30;99.90;;;;;;7366045;19;20344;-72
2022/05/01 01:14:03;;;;;;;4.45;3.78;;;6.30;99.90;;;;;;7368636;19;20320;-72
2022/05/01 01:16:29;;;;;;;5.82;4.07;;;6.20;99.90;;;;;;7367294;19;20305;-73
2022/05/01 01:18:55;;;;;;;7.30;5.20;;;6.10;99.90;;;;;;7369517;19;20349;-72
2022/05/01 01:21:20;;;;;;;7.38;5.07;;;5.90;99.90;;;;;;7367249;19;20332;-72
2022/05/01 01:23:46;;;;;;;5.93;4.47;;;5.70;99.90;;;;;;7370095;19;20341;-72
2022/05/01 01:26:12;;;;;;;5.65;4.47;;;5.70;99.90;;;;;;7367973;19;20796;-73
2022/05/01 01:28:40;;;;;;;5.55;3.90;;;5.70;99.90;;;;;;7372062;19;20660;-71
2022/05/01 01:33:54;;;;;;;4.85;4.35;;;5.80;99.90;;;;;;7370090;19;20320;-72
2022/05/01 01:36:20;;;;;;;8.05;4.90;;;5.80;99.90;;;;;;7367548;19;21363;-71
2022/05/01 01:38:46;;;;;;;6.78;4.82;;;5.70;99.90;;;;;;7367913;19;20331;-72
2022/05/01 01:41:12;;;;;;;5.38;4.68;;;5.60;99.90;;;;;;7368176;19;21033;-72
2022/05/01 01:43:38;;;;;;;6.37;4.10;;;5.40;99.90;;;;;;7368473;19;20349;-72
2022/05/01 01:46:03;;;;;;;5.63;4.40;;;5.40;99.90;;;;;;7366621;19;20339;-72
2022/05/01 01:48:29;;;;;;;5.97;3.83;;;5.30;99.90;;;;;;7369348;19;20345;-72
2022/05/01 01:51:04;;;;;;;4.80;4.30;;;5.30;99.90;;;;;;7367640;19;21120;-72
2022/05/01 01:53:31;;;;;;;4.78;4.03;;;5.40;99.90;;;;;;7370804;19;20329;-73
2022/05/01 01:55:57;;;;;;;7.50;4.60;;;5.40;99.90;;;;;;7369396;19;20420;-73
2022/05/01 01:58:23;;;;;;;4.70;3.53;;;5.40;99.90;;;;;;7371534;19;20349;-72
2022/05/01 02:00:49;;;;;;;4.75;3.53;;;5.40;99.90;;;;;;7364498;19;20349;-72
2022/05/01 02:03:15;;;;;;;4.15;3.55;;;5.40;99.90;;;;;;7369433;19;20345;-73
2022/05/01 02:05:42;;;;;;;4.65;3.13;;;5.40;99.90;;;;;;7369213;19;20344;-72
2022/05/01 02:08:08;;;;;;;3.50;3.20;;;5.30;99.90;;;;;;7367204;19;20344;-72
2022/05/01 02:10:35;;;;;;;3.33;2.93;;;5.40;99.90;;;;;;7365800;19;20317;-72
2022/05/01 02:13:00;;;;;;;6.45;3.90;;;5.40;99.90;;;;;;7367946;19;20351;-71
2022/05/01 02:15:30;;;;;;;3.40;3.10;;;5.20;99.90;;;;;;7372021;19;21103;-72
2022/05/01 02:17:56;;;;;;;3.72;2.85;;;5.10;99.90;;;;;;7370777;19;20333;-72
2022/05/01 02:20:21;;;;;;;3.67;3.28;;;5.10;99.90;;;;;;7369921;19;20725;-72
2022/05/01 02:22:47;;;;;;;3.13;2.83;;;5.00;99.90;;;;;;7370098;19;20345;-72
2022/05/01 02:25:13;;;;;;;5.50;3.00;;;5.00;99.90;;;;;;7370301;19;20701;-72
2022/05/01 02:27:38;;;;;;;3.72;3.15;;;5.10;99.90;;;;;;7375002;19;20321;-72
2022/05/01 02:30:06;;;;;;;3.30;2.87;;;5.00;99.90;;;;;;7370626;19;20327;-71
2022/05/01 02:32:31;;;;;;;3.70;3.22;;;4.90;99.90;;;;;;7368525;19;20384;-71
2022/05/01 02:34:57;;;;;;;4.07;3.40;;;4.80;99.90;;;;;;7367857;19;20727;-72
2022/05/01 02:37:22;;;;;;;3.30;2.88;;;4.80;99.90;;;;;;7374770;19;20337;-72
2022/05/01 02:39:48;;;;;;;4.80;3.30;;;4.70;99.90;;;;;;7371268;19;20366;-73
2022/05/01 02:42:13;;;;;;;4.38;3.30;;;4.70;99.90;;;;;;7370327;19;20336;-72
2022/05/01 02:44:39;;;;;;;4.33;3.20;;;4.60;99.90;;;;;;7371137;19;20352;-73
2022/05/01 02:47:05;;;;;;;3.45;3.15;;;4.60;99.90;;;;;;7369376;19;20349;-72
2022/05/01 02:49:31;;;;;;;3.93;3.37;;;4.60;99.90;;;;;;7370591;19;20345;-72
2022/05/01 02:51:58;;;;;;;4.15;3.50;;;4.50;99.90;;;;;;7367045;19;20340;-72
2022/05/01 02:54:24;;;;;;;4.65;3.08;;;4.40;99.90;;;;;;7369389;19;20332;-73
2022/05/01 02:56:52;;;;;;;4.32;3.08;;;4.50;99.90;;;;;;7373305;19;21008;-72
2022/05/01 02:59:18;;;;;;;3.53;3.23;;;4.30;99.90;;;;;;7370992;19;20333;-72
2022/05/01 03:01:44;;;;;;;3.43;3.13;;;4.30;99.90;;;;;;7373938;19;20337;-72
2022/05/01 03:04:10;;;;;;;4.20;3.03;;;4.30;99.90;;;;;;7378310;19;20321;-72
2022/05/01 03:06:35;;;;;;;3.20;2.90;;;4.30;99.90;;;;;;7376076;19;20344;-72
2022/05/01 03:09:02;;;;;;;4.63;3.60;;;4.30;99.90;;;;;;7377510;19;20936;-72
2022/05/01 03:11:28;;;;;;;4.47;3.08;;;4.30;99.90;;;;;;7369249;19;20805;-71
2022/05/01 03:13:54;;;;;;;3.97;3.10;;;4.30;99.90;;;;;;7357390;19;20343;-72
2022/05/01 03:16:19;;;;;;;3.40;3.10;;;4.30;99.90;;;;;;7377430;19;20343;-72
2022/05/01 03:22:13;;;;;;;3.88;3.30;;;4.30;99.90;;;;;;7369314;19;20876;-72
2022/05/01 03:24:18;;;;;;;3.80;3.33;;;4.30;99.90;;;;;;7272740;19;2004674;-72
2022/05/01 03:26:47;;;;;;;3.60;3.30;;;4.30;99.90;;;;;;7377065;19;20313;-72
2022/05/01 03:29:13;;;;;;;3.35;2.90;;;4.20;99.90;;;;;;7376956;19;20984;-72
2022/05/01 03:31:39;;;;;;;4.17;3.10;;;4.10;99.90;;;;;;7372416;19;20434;-72
2022/05/01 03:34:04;;;;;;;3.40;2.70;;;4.10;99.90;;;;;;7375120;19;20406;-73
2022/05/01 03:36:30;;;;;;;3.80;3.13;;;4.10;99.90;;;;;;7376315;19;21006;-72
2022/05/01 03:38:56;;;;;;;3.10;2.80;;;4.10;99.90;;;;;;7377337;19;20340;-71
2022/05/01 03:41:21;;;;;;;3.75;2.80;;;4.10;99.90;;;;;;7373115;19;20383;-72
2022/05/01 03:43:47;;;;;;;3.50;3.07;;;4.20;99.90;;;;;;7374979;19;20348;-72
2022/05/01 03:46:13;;;;;;;4.43;3.50;;;4.20;99.90;;;;;;7363764;19;20346;-72
2022/05/01 03:48:38;;;;;;;4.20;3.10;;;4.20;99.90;;;;;;7375166;19;20415;-72
2022/05/01 03:51:04;;;;;;;4.10;3.20;;;4.20;99.90;;;;;;7371849;19;20357;-72
2022/05/01 03:53:29;;;;;;;3.93;3.50;;;4.20;99.90;;;;;;7376092;19;21114;-72
2022/05/01 03:55:55;;;;;;;4.00;3.30;;;4.20;99.90;;;;;;7372199;19;20305;-72
2022/05/01 03:58:21;;;;;;;4.40;3.17;;;4.10;99.90;;;;;;7377414;19;20347;-71
2022/05/01 04:00:47;;;;;;;4.43;3.20;;;4.00;99.90;;;;;;7372939;19;20320;-72
2022/05/01 04:03:18;;;;;;;5.22;3.33;;;3.90;99.90;;;;;;7372527;19;20375;-71
2022/05/01 04:05:44;;;;;;;3.95;3.22;;;3.90;99.90;;;;;;7375321;19;20321;-71
2022/05/01 04:08:10;;;;;;;4.23;3.23;;;3.80;99.90;;;;;;7374267;19;20394;-71
2022/05/01 04:10:41;;;;;;;3.80;3.17;;;3.80;99.90;;;;;;7373106;19;20926;-72
2022/05/01 04:13:06;;;;;;;4.22;3.13;;;3.80;99.90;;;;;;7369017;19;20363;-72
2022/05/01 04:15:32;;;;;;;6.82;3.53;;;3.90;99.90;;;;;;7374284;19;20956;-71
2022/05/01 04:17:58;;;;;;;4.33;2.93;;;3.90;99.90;;;;;;7374771;19;20429;-72
2022/05/01 04:20:24;;;;;;;3.33;3.03;;;3.90;99.90;;;;;;7372771;19;20340;-72
2022/05/01 04:22:50;;;;;;;3.42;3.13;;;4.00;99.90;;;;;;7374295;19;21046;-73
2022/05/01 04:25:19;;;;;;;3.50;3.07;;;4.10;99.90;;;;;;7373240;19;20355;-73
2022/05/01 04:27:45;;;;;;;3.42;3.03;;;4.10;99.90;;;;;;7376497;19;20325;-72
2022/05/01 04:30:12;;;;;;;5.75;4.28;;;4.20;99.90;;;;;;7370017;19;20361;-72
2022/05/01 04:32:48;;;;;;;4.57;3.83;;;4.20;99.90;;;;;;7374860;19;20428;-72
2022/05/01 04:35:31;;;;;;;3.75;3.28;;;4.20;99.90;;;;;;7372162;19;20395;-74
2022/05/01 04:38:01;;;;;;;6.32;3.85;;;4.30;99.90;;;;;;7375793;19;20354;-72
2022/05/01 04:40:30;;;;;;;5.50;3.80;;;4.30;99.90;;;;;;7367691;19;20437;-72
2022/05/01 04:43:17;;;;;;;6.25;3.78;;;4.20;99.90;;;;;;7369232;19;20301;-72
2022/05/01 04:45:43;;;;;;;4.53;3.83;;;4.20;99.90;;;;;;7270141;19;2004354;-72
2022/05/01 04:48:09;;;;;;;5.05;3.90;;;4.20;99.90;;;;;;7373191;19;20716;-71
2022/05/01 04:50:35;;;;;;;3.77;3.30;;;4.30;99.90;;;;;;7371192;19;20899;-73
2022/05/01 04:53:01;;;;;;;4.88;3.67;;;4.30;99.90;;;;;;7371000;19;20423;-70
2022/05/01 04:55:27;;;;;;;4.85;3.60;;;4.40;99.90;;;;;;7375408;19;20380;-72
2022/05/01 04:57:53;;;;;;;5.55;4.07;;;4.60;99.90;;;;;;7376069;19;20873;-72
2022/05/01 05:00:21;;;;;;;4.97;4.07;;;4.60;99.90;;;;;;7372981;19;20341;-72
2022/05/01 05:02:48;;;;;;;5.93;3.85;;;4.70;99.90;;;;;;7371753;19;20361;-72
2022/05/01 05:05:15;;;;;;;7.07;4.83;;;4.80;99.90;;;;;;7371364;19;21078;-72
2022/05/01 05:07:40;;;;;;;6.90;5.03;;;4.90;99.90;;;;;;7375070;19;21188;-71
2022/05/01 05:10:08;;;;;;;5.33;3.90;;;5.00;99.90;;;;;;7367278;19;20357;-72
2022/05/01 05:12:34;;;;;;;4.65;3.85;;;5.10;99.90;;;;;;7375116;19;20428;-72
2022/05/01 05:15:00;;;;;;;5.20;4.10;;;5.20;99.90;;;;;;7372216;19;20319;-72
2022/05/01 05:17:27;;;;;;;5.03;4.03;;;5.40;99.90;;;;;;7374600;19;20452;-72
2022/05/01 05:19:53;;;;;;;5.70;4.90;;;5.50;99.90;;;;;;7369615;19;20357;-73
2022/05/01 05:22:18;;;;;;;5.57;4.25;;;5.60;99.90;;;;;;7370747;19;20344;-72
2022/05/01 05:24:44;;;;;;;4.85;4.28;;;5.80;99.90;;;;;;7373250;19;20353;-75
2022/05/01 05:27:10;;;;;;;4.20;3.57;;;6.00;99.90;;;;;;7375016;19;20782;-75
2022/05/01 05:29:35;;;;;;;5.93;3.72;;;6.10;99.90;;;;;;7377051;19;20321;-75
2022/05/01 05:32:01;;;;;;;3.67;3.37;;;6.30;99.90;;;;;;7370938;19;20891;-73
2022/05/01 05:34:27;;;;;;;5.32;4.35;;;6.50;99.90;;;;;;7376623;19;20344;-74
2022/05/01 05:36:52;;;;;;;5.75;3.83;;;6.60;99.90;;;;;;7372003;19;22852;-74
2022/05/01 05:39:18;;;;;;;7.80;5.17;;;6.70;99.90;;;;;;7374316;19;20366;-73
2022/05/01 05:41:44;;;;;;;5.77;4.47;;;6.80;99.90;;;;;;7371732;19;20330;-74
2022/05/01 05:44:10;;;;;;;5.93;4.70;;;6.90;99.90;;;;;;7373242;19;20332;-74
2022/05/01 05:46:36;;;;;;;5.70;4.47;;;7.10;99.90;;;;;;7374242;19;20915;-73
2022/05/01 05:49:02;;;;;;;6.25;4.80;;;7.30;99.90;;;;;;7374531;19;20308;-75
2022/05/01 05:51:27;;;;;;;4.33;3.70;;;7.40;99.90;;;;;;7372546;19;20353;-76
2022/05/01 05:53:53;;;;;;;4.32;3.50;;;7.60;99.90;;;;;;7374858;19;20313;-74
2022/05/01 05:56:19;;;;;;;5.17;3.77;;;7.80;99.90;;;;;;7376033;19;20352;-74
2022/05/01 05:58:44;;;;;;;5.88;3.53;;;7.90;99.90;;;;;;7376633;19;20347;-74
2022/05/01 06:01:10;;;;;;;6.75;3.55;;;8.10;99.90;;;;;;7373247;19;20352;-75
2022/05/01 06:03:36;;;;;;;4.40;3.70;;;8.30;99.90;;;;;;7376127;19;21022;-75
2022/05/01 06:06:02;;;;;;;5.93;4.18;;;8.50;99.90;;;;;;7372978;19;20293;-74
2022/05/01 06:08:28;;;;;;;4.60;3.13;;;8.70;99.90;;;;;;7376237;19;20332;-75
2022/05/01 06:10:54;;;;;;;3.80;3.40;;;8.90;99.90;;;;;;7364812;19;20872;-74
2022/05/01 06:13:19;;;;;;;3.97;3.33;;;9.20;99.90;;;;;;7374274;19;20320;-74
2022/05/01 06:15:45;;;;;;;3.45;3.10;;;9.20;99.90;;;;;;7351525;19;20911;-75
2022/05/01 06:18:10;;;;;;;3.30;2.80;;;9.40;99.90;;;;;;7377842;19;20352;-75
2022/05/01 06:20:37;;;;;;;7.05;3.67;;;9.70;99.90;;;;;;7369136;19;20739;-74
2022/05/01 06:23:02;;;;;;;3.80;2.83;;;9.90;99.90;;;;;;7373529;19;20410;-74
2022/05/01 06:25:28;;;;;;;5.13;3.50;;;10.20;99.90;;;;;;7374160;19;20408;-75
2022/05/01 06:27:53;;;;;;;3.77;3.33;;;10.40;99.90;;;;;;7378749;19;20328;-75
2022/05/01 06:30:19;;;;;;;5.13;4.63;;;10.60;99.90;;;;;;7375704;19;20369;-75
2022/05/01 06:32:45;;;;;;;4.93;3.40;;;10.80;99.90;;;;;;7375193;19;20399;-75
2022/05/01 06:35:11;;;;;;;4.67;3.70;;;11.00;99.90;;;;;;7371780;19;22368;-75
2022/05/01 06:37:37;;;;;;;4.65;3.53;;;11.20;99.90;;;;;;7376492;19;20329;-75
2022/05/01 06:40:03;;;;;;;6.85;3.40;;;11.30;99.90;;;;;;7371217;19;20383;-75
2022/05/01 06:42:30;;;;;;;3.78;3.38;;;11.40;99.90;;;;;;7370193;19;20333;-75
2022/05/01 06:44:55;;;;;;;5.57;3.80;;;11.60;99.90;;;;;;7370658;19;20336;-75
2022/05/01 06:47:21;;;;;;;4.23;3.40;;;11.80;99.90;;;;;;7375261;19;20434;-75
2022/05/01 06:49:46;;;;;;;4.07;3.40;;;12.10;99.90;;;;;;7371866;19;20358;-74
2022/05/01 06:52:12;;;;;;;5.77;3.33;;;12.30;99.90;;;;;;7370205;19;20363;-76
2022/05/01 06:54:39;;;;;;;3.50;3.10;;;12.60;99.90;;;;;;7376107;19;20328;-75
2022/05/01 06:57:05;;;;;;;4.93;4.00;;;12.80;99.90;;;;;;7370466;19;20685;-74
2022/05/01 06:59:31;;;;;;;6.87;3.93;;;13.00;99.90;;;;;;7375660;19;20455;-75
2022/05/01 07:01:56;;;;;;;3.92;3.35;;;13.20;99.90;;;;;;7365572;19;20304;-75
2022/05/01 07:04:22;;;;;;;4.40;3.40;;;13.40;99.90;;;;;;7373176;19;20420;-75
2022/05/01 07:06:47;;;;;;;4.53;3.30;;;13.60;99.90;;;;;;7376183;19;20852;-76
2022/05/01 07:09:13;;;;;;;4.80;3.63;;;13.90;99.90;;;;;;7374771;19;20412;-76
2022/05/01 07:11:39;;;;;;;5.00;3.77;;;14.10;99.90;;;;;;7373480;19;20881;-74
2022/05/01 07:14:04;;;;;;;4.32;3.90;;;14.30;99.90;;;;;;7375674;19;20325;-75
2022/05/01 07:16:30;;;;;;;4.93;3.90;;;14.40;99.90;;;;;;7374865;19;20337;-76
2022/05/01 07:18:55;;;;;;;4.87;3.40;;;14.50;99.90;;;;;;7373886;19;20875;-75
2022/05/01 07:21:21;;;;;;;5.65;3.65;;;14.70;99.90;;;;;;7371045;19;20386;-80
2022/05/01 07:23:46;;;;;;;5.80;3.87;;;14.90;99.90;;;;;;7371260;19;20325;-76
2022/05/01 07:26:12;;;;;;;4.20;3.60;;;15.00;99.90;;;;;;7372978;19;20340;-77
2022/05/01 07:28:39;;;;;;;5.50;3.92;;;15.10;99.90;;;;;;7372227;19;20337;-78
2022/05/01 07:31:05;;;;;;;7.13;4.22;;;15.20;99.90;;;;;;7370271;19;20409;-78
2022/05/01 07:33:30;;;;;;;5.70;3.80;;;15.40;99.90;;;;;;7375935;19;20977;-78
2022/05/01 07:35:57;;;;;;;4.40;3.25;;;15.10;99.90;;;;;;7376884;19;20932;-78
2022/05/01 07:38:23;;;;;;;4.83;3.77;;;15.40;99.90;;;;;;7377952;19;20340;-77
2022/05/01 07:40:49;;;;;;;4.43;3.42;;;15.70;99.90;;;;;;7370721;19;20298;-76
2022/05/01 07:43:15;;;;;;;4.22;3.63;;;15.90;99.90;;;;;;7372656;19;21007;-76
2022/05/01 07:45:41;;;;;;;4.93;3.80;;;16.00;99.90;;;;;;7374316;19;20373;-76
2022/05/01 07:48:07;;;;;;;6.28;3.72;;;16.30;99.90;;;;;;7378104;19;20368;-77
2022/05/01 07:50:32;;;;;;;6.43;3.60;;;16.50;99.90;;;;;;7376451;19;20340;-79
2022/05/01 07:52:58;;;;;;;4.32;3.40;;;16.90;99.90;;;;;;7376190;19;20325;-78
2022/05/01 07:55:23;;;;;;;5.57;3.30;;;17.10;99.90;;;;;;7381440;19;20354;-76
2022/05/01 07:57:49;;;;;;;5.05;3.92;;;17.40;99.70;;;;;;7379253;19;21236;-77
2022/05/01 08:00:15;;;;;;;4.70;3.60;;;17.30;98.40;;;;;;7377233;19;20304;-76
2022/05/01 08:05:27;;;;;;;5.35;4.40;;;17.70;97.90;;;;;;7379337;19;20702;-78
2022/05/01 08:07:53;;;;;;;4.67;3.53;;;17.80;95.10;;;;;;7382634;19;20321;-79
2022/05/01 08:10:19;;;;;;;3.97;3.30;;;17.70;96.20;;;;;;7379736;19;20325;-77
2022/05/01 08:12:44;;;;;;;4.88;3.88;;;17.70;96.10;;;;;;7377477;19;20345;-78
2022/05/01 08:15:10;;;;;;;6.50;4.13;;;17.80;95.50;;;;;;7373482;19;20327;-76
2022/05/01 08:17:36;;;;;;;4.37;3.43;;;18.10;96.10;;;;;;7377259;19;20312;-76
2022/05/01 08:22:45;;;;;;;4.03;3.13;;;18.20;93.40;;;;;;7375689;19;20337;-73
2022/05/01 08:25:11;;;;;;;6.07;3.73;;;18.30;92.80;;;;;;7372722;19;21401;-76
2022/05/01 08:27:38;;;;;;;4.85;3.45;;;18.40;91.30;;;;;;7373398;19;20340;-76
2022/05/01 08:30:05;;;;;;;3.97;3.40;;;18.60;92.50;;;;;;7366558;19;20359;-75
2022/05/01 08:32:31;;;;;;;4.05;3.47;;;19.10;92.90;;;;;;7365710;19;20453;-75
2022/05/01 08:34:58;;;;;;;4.60;3.53;;;19.30;92.10;;;;;;7370917;19;20309;-75
2022/05/01 08:37:24;;;;;;;4.10;3.13;;;19.60;91.40;;;;;;7372624;19;20790;-75
2022/05/01 08:39:49;;;;;;;4.63;3.10;;;19.60;90.90;;;;;;7371455;19;20864;-74
2022/05/01 08:42:15;;;;;;;3.13;2.80;;;19.70;89.60;;;;;;7375073;19;20320;-77
2022/05/01 08:44:40;;;;;;;5.57;3.40;;;20.00;90.60;;;;;;7375197;19;20762;-76
2022/05/01 08:47:23;;;;;;;4.67;3.37;;;20.10;88.30;;;;;;7373463;19;20344;-76
2022/05/01 08:49:50;;;;;;;4.93;3.25;;;20.50;89.50;;;;;;7265741;19;2011628;-77
2022/05/01 08:52:18;;;;;;;3.93;2.73;;;20.40;86.70;;;;;;7375781;19;20308;-77
2022/05/01 08:54:44;;;;;;;4.13;3.33;;;20.50;87.90;;;;;;7374729;19;20325;-77
2022/05/01 08:57:10;;;;;;;4.07;2.78;;;20.00;81.40;;;;;;7372811;19;20378;-76
2022/05/01 08:59:35;;;;;;;2.95;2.50;;;20.40;85.20;;;;;;7374080;19;20349;-77
2022/05/01 09:02:01;;;;;;;5.93;3.10;;;20.70;85.80;;;;;;7373410;19;20364;-76
2022/05/01 09:04:27;;;;;;;4.03;3.00;;;21.10;81.10;;;;;;7377664;19;21256;-77
2022/05/01 09:06:53;;;;;;;5.15;3.13;;;21.20;78.80;;;;;;7372195;19;21435;-77
2022/05/01 09:09:20;;;;;;;3.45;2.65;;;21.00;77.40;;;;;;7373667;19;20381;-76
2022/05/01 09:14:32;;;;;;;4.07;3.00;;;21.40;77.60;;;;;;7269429;19;2004345;-76
2022/05/01 09:17:17;;;;;;;5.20;2.80;;;21.20;73.50;;;;;;7372434;19;20970;-76
2022/05/01 09:19:44;;;;;;;4.13;2.95;;;21.40;72.90;;;;;;7270367;19;2004475;-76
2022/05/01 09:22:11;;;;;;;3.10;2.55;;;21.60;70.60;;;;;;7373714;19;20320;-79
2022/05/01 09:24:37;;;;;;;3.85;2.53;;;21.70;69.20;;;;;;7374398;19;20371;-79
2022/05/01 09:27:03;;;;;;;3.27;2.70;;;21.90;67.20;;;;;;7374876;19;20411;-78
2022/05/01 09:29:32;;;;;;;2.75;2.33;;;22.00;66.30;;;;;;7377208;19;20337;-80
2022/05/01 09:32:00;;;;;;;4.03;2.75;;;22.10;64.50;;;;;;7377061;19;20328;-79
2022/05/01 09:34:31;;;;;;;4.80;2.50;;;22.40;59.30;;;;;;7378040;19;20348;-78
2022/05/01 09:36:58;;;;;;;3.10;2.50;;;22.50;61.10;;;;;;7376855;19;20324;-81
2022/05/01 09:39:31;;;;;;;2.75;2.55;;;22.50;57.40;;;;;;7375337;19;20366;-80
2022/05/01 09:42:16;;;;;;;5.20;2.40;;;22.90;59.80;;;;;;7374707;19;20336;-79
2022/05/01 09:44:42;;;;;;;3.45;3.05;;;22.90;56.90;;;;;;7377878;19;20329;-80
2022/05/01 09:47:07;;;;;;;3.08;2.38;;;22.90;53.00;;;;;;7376084;19;20881;-81
2022/05/01 09:49:46;;;;;;;3.50;2.60;;;23.00;57.90;;;;;;7379065;19;20304;-81
2022/05/01 09:52:12;;;;;;;4.00;2.27;;;23.40;54.90;;;;;;7275435;19;2004405;-82
2022/05/01 09:54:37;;;;;;;2.50;2.30;;;23.40;54.50;;;;;;7379169;19;20421;-81
2022/05/01 09:57:04;;;;;;;3.80;2.40;;;23.70;54.50;;;;;;7375829;19;20394;-81
2022/05/01 09:59:30;;;;;;;3.45;2.40;;;23.70;51.80;;;;;;7374340;19;20694;-80
2022/05/01 10:02:03;;;;;;;2.30;2.10;;;23.90;52.20;;;;;;7372936;19;20310;-82
2022/05/01 10:04:30;;;;;;;4.37;2.57;;;23.90;52.10;;;;;;7378574;19;20347;-80
2022/05/01 10:06:56;;;;;;;3.10;2.30;;;24.20;52.10;;;;;;7374383;19;20859;-77
2022/05/01 10:09:26;;;;;;;2.47;2.28;;;24.50;52.30;;;;;;7376280;19;20347;-79
2022/05/01 10:11:57;;;;;;;2.80;2.42;;;24.80;50.00;;;;;;7374899;19;20317;-78
2022/05/01 10:14:22;;;;;;;4.20;2.55;;;24.50;49.10;;;;;;7377389;19;20320;-80
2022/05/01 10:16:48;;;;;;;5.53;2.30;;;24.80;49.80;;;;;;7374857;19;21198;-80
2022/05/01 10:19:15;;;;;;;3.00;2.40;;;24.90;47.50;;;;;;7376704;19;20678;-81
2022/05/01 10:21:43;;;;;;;3.10;2.50;;;24.00;45.90;;;;;;7372280;19;20325;-82
2022/05/01 10:24:09;;;;;;;3.17;2.20;;;23.80;47.90;;;;;;7380349;19;20903;-76
2022/05/01 10:26:37;;;;;;;2.60;2.20;;;24.10;49.00;;;;;;7373859;19;20416;-78
2022/05/01 10:29:31;;;;;;;2.35;2.03;;;24.40;49.10;;;;;;7374892;19;20400;-77
2022/05/01 10:32:34;;;;;;;2.17;1.92;;;25.00;50.80;;;;;;7375456;19;20345;-76
2022/05/01 10:35:25;;;;;;;4.28;2.30;;;25.60;46.40;;;;;;7274944;19;2004804;-77
2022/05/01 10:38:12;;;;;;;3.22;2.38;;;25.80;46.40;;;;;;7272439;19;2005823;-75
2022/05/01 10:40:46;;;;;;;3.25;2.13;;;25.60;45.60;;;;;;7272184;19;2004700;-77
2022/05/01 10:43:43;;;;;;;2.33;2.03;;;25.90;46.00;;;;;;7374310;19;20401;-77
2022/05/01 10:46:21;;;;;;;4.25;2.13;;;25.70;44.70;;;;;;7370160;19;20870;-77
2022/05/01 10:48:46;;;;;;;3.50;2.20;;;26.10;45.90;;;;;;7373358;19;20369;-75
2022/05/01 10:51:30;;;;;;;2.40;2.20;;;26.20;43.90;;;;;;7370996;19;20383;-76
2022/05/01 10:54:17;;;;;;;2.25;2.05;;;26.70;44.20;;;;;;7375994;19;20670;-75
2022/05/01 10:56:49;;;;;;;2.90;2.38;;;26.90;43.30;;;;;;7272886;19;2004292;-77
2022/05/01 10:59:29;;;;;;;2.63;2.00;;;26.90;42.80;;;;;;7374633;19;20312;-76
2022/05/01 11:01:56;;;;;;;2.90;2.22;;;26.00;41.60;;;;;;7372154;19;20324;-76
2022/05/01 11:04:21;;;;;;;3.40;2.22;;;25.50;42.60;;;;;;7372668;19;20352;-76
2022/05/01 11:06:54;;;;;;;2.75;2.10;;;26.00;42.90;;;;;;7364883;19;22025;-75
2022/05/01 11:09:21;;;;;;;2.47;2.28;;;26.80;43.10;;;;;;7258166;19;2004734;-77
2022/05/01 11:11:46;;;;;;;2.17;1.90;;;26.10;38.90;;;;;;7365450;19;20427;-77
2022/05/01 11:14:14;;;;;;;2.37;2.00;;;26.10;42.20;;;;;;7368827;19;20439;-75
2022/05/01 11:16:50;;;;;;;3.78;2.30;;;26.50;41.90;;;;;;7368909;19;20319;-76
2022/05/01 11:19:16;;;;;;;1.98;1.83;;;27.20;40.90;;;;;;7270016;19;2004959;-77
2022/05/01 11:21:46;;;;;;;2.60;2.40;;;27.30;41.20;;;;;;7369142;19;20773;-76
2022/05/01 11:24:15;;;;;;;3.22;2.30;;;27.30;40.40;;;;;;7378476;19;20340;-77
2022/05/01 11:27:07;;;;;;;2.40;2.20;;;27.40;41.20;;;;;;7378913;19;20301;-75
2022/05/01 11:29:32;;;;;;;1.80;1.63;;;27.60;38.60;;;;;;7274518;19;2004398;-75
2022/05/01 11:31:58;;;;;;;2.20;1.97;;;27.70;40.50;;;;;;7375407;19;20344;-75
2022/05/01 11:34:23;;;;;;;2.30;2.00;;;28.30;39.90;;;;;;7374762;19;21394;-76
2022/05/01 11:37:01;;;;;;;1.90;1.80;;;28.30;39.90;;;;;;7376932;19;20351;-76
2022/05/01 11:40:06;;;;;;;2.30;2.05;;;27.90;38.40;;;;;;7376623;19;20352;-76
2022/05/01 11:42:37;;;;;;;2.45;1.90;;;28.10;38.60;;;;;;7271679;19;2004505;-77
2022/05/01 11:45:04;;;;;;;2.15;1.95;;;28.50;39.20;;;;;;7377230;19;20341;-77
2022/05/01 11:47:33;;;;;;;2.42;2.17;;;29.00;39.10;;;;;;7378605;19;20754;-76
2022/05/01 11:49:59;;;;;;;3.40;2.00;;;29.00;37.70;;;;;;7376145;19;20325;-76
2022/05/01 11:52:25;;;;;;;6.17;2.40;;;29.00;37.70;;;;;;7376513;19;20955;-75
2022/05/01 11:54:57;;;;;;;3.90;2.40;;;28.70;37.50;;;;;;7376087;19;20814;-77
2022/05/01 12:03:00;;;;;;;2.42;2.20;;;29.50;37.20;;;;;;7278880;19;2004650;-76
2022/05/01 12:05:26;;;;;;;2.28;2.08;;;30.00;37.40;;;;;;7379252;19;20320;-76
2022/05/01 12:07:56;;;;;;;2.80;2.10;;;29.30;33.00;;;;;;7375913;19;20365;-76
2022/05/01 12:10:22;;;;;;;2.50;2.03;;;29.40;36.30;;;;;;7374933;19;20372;-76
2022/05/01 12:12:48;;;;;;;2.35;2.10;;;29.80;35.70;;;;;;7380283;19;20344;-77
2022/05/01 12:15:13;;;;;;;1.80;1.70;;;30.40;35.70;;;;;;7378888;19;20320;-78
2022/05/01 12:17:40;;;;;;;2.30;2.00;;;31.00;35.30;;;;;;7376673;19;20328;-77
2022/05/01 12:20:06;;;;;;;2.77;1.90;;;31.40;35.20;;;;;;7374797;19;20376;-79
2022/05/01 12:22:37;;;;;;;2.10;1.80;;;31.90;35.00;;;;;;7377110;19;20344;-77
2022/05/01 12:25:03;;;;;;;2.10;1.90;;;32.10;34.10;;;;;;7377939;19;20317;-78
2022/05/01 12:27:35;;;;;;;2.80;1.92;;;32.10;33.30;;;;;;7377496;19;20368;-77
2022/05/01 12:30:03;;;;;;;2.88;2.35;;;31.50;33.40;;;;;;7354995;19;20355;-76
2022/05/01 12:32:28;;;;;;;3.05;2.05;;;29.60;30.70;;;;;;7377046;19;20367;-77
2022/05/01 12:34:56;;;;;;;2.53;2.20;;;28.40;31.90;;;;;;7375537;19;20359;-79
2022/05/01 12:37:40;;;;;;;2.08;1.98;;;28.20;35.90;;;;;;7374549;19;20471;-77
2022/05/01 12:40:10;;;;;;;2.10;1.52;;;28.60;36.10;;;;;;7375873;19;20300;-76
2022/05/01 12:45:53;;;;;;;3.75;1.88;;;28.50;35.30;;;;;;7277669;19;2004367;-79
2022/05/01 12:48:19;;;;;;;3.00;1.95;;;28.60;36.00;;;;;;7275703;19;2019801;-77
2022/05/01 12:50:50;;;;;;;3.92;2.20;;;29.30;34.70;;;;;;7379910;19;20324;-77
2022/05/01 12:53:29;;;;;;;2.23;2.03;;;27.50;31.60;;;;;;7383386;19;20364;-76
2022/05/01 12:55:58;;;;;;;1.85;1.75;;;27.80;35.30;;;;;;7280153;19;2004648;-76
2022/05/01 12:58:27;;;;;;;2.00;1.80;;;27.30;36.20;;;;;;7383855;19;20353;-76
2022/05/01 13:00:53;;;;;;;2.20;2.00;;;27.70;36.70;;;;;;7382880;19;20719;-75
2022/05/01 13:03:33;;;;;;;3.05;1.90;;;28.10;36.10;;;;;;7385812;19;20328;-76
2022/05/01 13:06:05;;;;;;;2.20;1.80;;;28.10;34.20;;;;;;7280721;19;2004327;-76
2022/05/01 13:08:32;;;;;;;3.93;2.00;;;28.80;37.30;;;;;;7382984;19;20344;-78
2022/05/01 13:11:17;;;;;;;2.90;2.15;;;30.00;37.10;;;;;;7379747;19;20341;-78
2022/05/01 13:13:52;;;;;;;3.58;2.10;;;27.90;33.20;;;;;;7281626;19;2004460;-76
2022/05/01 13:16:24;;;;;;;2.28;1.90;;;28.90;36.30;;;;;;7357679;19;20325;-77
2022/05/01 13:18:54;;;;;;;2.35;1.90;;;28.70;34.20;;;;;;7380459;19;20364;-76